Star City, IN (46985)

1:18 AM EDT on September 24, 2014 (GMT -0400)
Leroy's BarnYard | Change Station
CLOSE
Current Station
Personal Weather Station
Location: Kewanna, IN
Elevation: 758 ft
Nearby Weather Stations

Elev 758 ft 40.99 °N, 86.35 °W | Updated 3 minutes ago

Clear
Clear
54.6 °F
Feels Like 54.6 °F
N
1.0
Wind Variable Wind from ESE
Gusts 1.0 mph

Today
High -- | Low -- °F
--% Chance of Precip.
Yesterday
High -- | Low -- °F
Precip. -- in
7:35 AM 7:39 PM
Waning Crescent, 0% visible
Pressure 30.33 in
Visibility 10.0 miles
Clouds Clear
Dew Point 49 °F
Humidity 82%
Rainfall 0.00 in
Snow Depth Not available.
UV 0 out of 12
Pollen 4.80 out of 12
Air Quality Not available.
Flu Activity Not available.
METAR KGGP 240455Z AUTO 08004KT 10SM CLR 08/06 A3033 RMK AO2

More Conditions Fewer Conditions

Pressure 30.33 in
Visibility 10.0 miles
Clouds Clear
Dew Point 49 °F
Humidity 82%
Rainfall 0.00 in
Snow Depth Not available.
UV 0 out of 12
Pollen 4.80 out of 12
Air Quality Not available.
Flu Activity Not available.
METAR KGGP 240455Z AUTO 08004KT 10SM CLR 08/06 A3033 RMK AO2

More Conditions Fewer Conditions

10-Day Weather Forecast

Almanac

Astronomy

Sep. 24, 2014 Rise Set
Actual Time 7:35 AM EDT 7:39 PM EDT
Civil Twilight 7:08 AM EDT 8:07 PM EDT
Nautical Twilight 6:36 AM EDT 8:39 PM EDT
Astronomical Twilight 6:03 AM EDT 9:11 PM EDT
Moon 7:56 AM EDT 7:49 PM EDT
Length of Visible Light 12h 59m
Length of Day
12h 04m
Tomorrow will be 2m 41s shorter.
Waning Crescent, 0% of the Moon is Illuminated
Today
Waning Crescent
Sep 24
New
Oct 1
First Quarter
Oct 8
Full
Oct 15
Last Quarter

Today's Extremes

State Highs State Lows

Community

WunderPhotos

Upload Photos

1,755,891 photos uploaded!

WunderBlogs® & News

Nearby

Snow Depth

Station Depth Elevation
No new snow has been reported.

Earthquake Activity

City Distance Mag. Time & Date
No recent earthquake activity has been reported nearby.
Minimum magnitude displayed is 2.5.

Coastal Water Temperatures

Place Temperature
No Stations Reporting

Nearby Weather Stations